KCNK/CNK METAR and TAF weather

Enter ICAO airport designator
Station Type Date Time Source
KCNK METAR 2019/08/19 21:55 UTC NOAA

KCNK 192155Z AUTO 15010KT 10SM CLR 33/26 A2990 RMK AO2 SLP106 T03330256


Station Type Date Time Source
KCNK Decoded METAR 2019/08/19 21:55 UTC NOAA

Concordia, Blosser Municipal Airport, KS, United States (KCNK) 39-33-05N 097-39-02W 447M
Aug 19, 2019 - 05:55 PM EDT / 2019.08.19 2155 UTC
Wind: from the SSE (150 degrees) at 12 MPH (10 KT):0
Visibility: 10 mile(s):0
Sky conditions: clear
Temperature: 91.9 F (33.3 C)
Heat index: 107.2 F (41.8 C):1
Dew Point: 78.1 F (25.6 C)
Relative Humidity: 64%
Pressure (altimeter): 29.9 in. Hg (1012 hPa)
ob: KCNK 192155Z AUTO 15010KT 10SM CLR 33/26 A2990 RMK AO2 SLP106 T03330256
cycle: 22

Station Type Date Time Source
KCNK TAF UTC NOAA

Error!

Example: see airport list